createdAt,value
2023-03-16T00:02:12.773Z,0.73
2023-03-16T00:04:41.211Z,0.35
2023-03-16T00:07:12.603Z,0.32
2023-03-16T00:09:41.556Z,0.40
2023-03-16T00:12:15.997Z,0.20
2023-03-16T00:14:45.397Z,0.90
2023-03-16T00:17:19.308Z,0.30
2023-03-16T00:19:51.240Z,1.00
2023-03-16T00:22:19.842Z,0.50
2023-03-16T00:24:48.658Z,1.10
2023-03-16T00:27:18.692Z,0.50
2023-03-16T00:29:49.283Z,0.80
2023-03-16T00:32:19.594Z,0.53
2023-03-16T00:34:49.183Z,0.70
2023-03-16T00:37:19.557Z,0.47
2023-03-16T00:39:49.112Z,0.90
2023-03-16T00:42:20.807Z,1.10
2023-03-16T00:44:49.374Z,1.03
2023-03-16T00:47:17.985Z,0.50
2023-03-16T00:49:46.863Z,0.50
2023-03-16T00:52:15.699Z,1.10
2023-03-16T00:54:44.987Z,0.50
2023-03-16T00:57:14.303Z,0.80
2023-03-16T00:59:44.527Z,0.40
2023-03-16T01:02:13.697Z,1.00
2023-03-16T01:04:42.577Z,0.60
2023-03-16T01:07:13.299Z,0.70
2023-03-16T01:09:42.723Z,1.00
2023-03-16T01:12:14.733Z,0.70
2023-03-16T01:14:46.284Z,0.73
2023-03-16T01:17:16.032Z,0.50
2023-03-16T01:19:45.230Z,0.40
2023-03-16T01:22:14.608Z,1.30
2023-03-16T01:24:45.275Z,1.00
2023-03-16T01:27:14.769Z,0.80
2023-03-16T01:29:44.836Z,0.50
2023-03-16T01:32:13.856Z,1.13
2023-03-16T01:34:42.602Z,0.77
2023-03-16T01:37:11.464Z,0.80
2023-03-16T01:39:40.070Z,0.80
2023-03-16T01:42:08.931Z,0.60
2023-03-16T01:44:56.139Z,0.98
2023-03-16T01:47:25.089Z,1.10
2023-03-16T01:49:57.367Z,1.20
2023-03-16T01:52:29.999Z,0.75
2023-03-16T01:55:02.177Z,0.80
2023-03-16T01:57:36.958Z,1.15
2023-03-16T02:00:10.783Z,0.60
2023-03-16T02:02:43.757Z,0.85
2023-03-16T02:05:15.121Z,0.87
2023-03-16T02:07:49.355Z,1.08
2023-03-16T02:10:20.384Z,0.80
2023-03-16T02:12:49.320Z,0.75
2023-03-16T02:15:19.245Z,0.90
2023-03-16T02:17:49.464Z,0.77
2023-03-16T02:20:29.852Z,1.00
2023-03-16T02:22:59.029Z,0.90
2023-03-16T02:25:36.482Z,0.70
2023-03-16T02:28:12.171Z,0.40
2023-03-16T02:30:42.258Z,0.68
2023-03-16T02:33:11.441Z,0.60
2023-03-16T02:35:40.046Z,0.85
2023-03-16T02:38:08.694Z,1.10
2023-03-16T02:40:38.999Z,0.80
2023-03-16T02:43:10.862Z,0.60
2023-03-16T02:45:46.993Z,0.77
2023-03-16T02:48:22.702Z,0.80
2023-03-16T02:50:55.591Z,0.88
2023-03-16T02:53:24.365Z,0.70
2023-03-16T02:55:52.963Z,1.00
2023-03-16T02:58:21.966Z,0.80
2023-03-16T03:00:52.091Z,0.80
2023-03-16T03:03:20.692Z,0.60
2023-03-16T03:05:49.309Z,0.85
2023-03-16T03:08:20.400Z,0.47
2023-03-16T03:10:48.981Z,0.23
2023-03-16T03:13:17.665Z,0.60
2023-03-16T03:15:46.433Z,1.00
2023-03-16T03:18:16.372Z,0.60
2023-03-16T03:20:44.977Z,0.50
2023-03-16T03:23:15.405Z,0.88
2023-03-16T03:25:45.373Z,0.75
2023-03-16T03:28:14.328Z,0.73
2023-03-16T03:30:42.930Z,0.75
2023-03-16T03:33:11.537Z,0.82
2023-03-16T03:35:42.180Z,0.60
2023-03-16T03:38:11.649Z,0.90
2023-03-16T03:40:40.264Z,0.80
2023-03-16T03:43:08.876Z,0.88
2023-03-16T03:45:37.535Z,0.70
2023-03-16T03:48:06.719Z,0.70
2023-03-16T03:50:35.319Z,0.90
2023-03-16T03:53:05.494Z,1.00
2023-03-16T03:55:34.119Z,0.73
2023-03-16T03:58:02.747Z,0.70
2023-03-16T04:00:31.370Z,0.90
2023-03-16T04:03:00.083Z,0.80
2023-03-16T04:05:28.827Z,0.98
2023-03-16T04:07:58.102Z,0.80
2023-03-16T04:10:29.631Z,0.77
2023-03-16T04:12:58.684Z,0.80
2023-03-16T04:15:27.894Z,0.70
2023-03-16T04:17:56.506Z,0.95
2023-03-16T04:20:25.188Z,1.10
2023-03-16T04:22:58.540Z,0.75
2023-03-16T04:25:30.638Z,1.10
2023-03-16T04:27:59.688Z,1.00
2023-03-16T04:30:28.487Z,1.00
2023-03-16T04:32:57.435Z,0.82
2023-03-16T04:35:26.054Z,0.90
2023-03-16T04:37:54.675Z,0.82
2023-03-16T04:40:23.423Z,0.68
2023-03-16T04:42:53.408Z,0.77
2023-03-16T04:45:22.221Z,0.90
2023-03-16T04:47:51.070Z,0.90
2023-03-16T04:50:19.903Z,0.93
2023-03-16T04:52:48.549Z,0.90
2023-03-16T04:55:17.274Z,0.90
2023-03-16T04:57:45.971Z,0.80
2023-03-16T05:00:19.403Z,0.90
2023-03-16T05:02:48.618Z,1.00
2023-03-16T05:05:17.332Z,0.80
2023-03-16T05:07:46.567Z,0.80
2023-03-16T05:10:17.219Z,0.73
2023-03-16T05:12:46.078Z,1.08
2023-03-16T05:15:16.092Z,1.02
2023-03-16T05:17:44.831Z,1.17
2023-03-16T05:20:26.049Z,1.08
2023-03-16T05:22:54.779Z,1.27
2023-03-16T05:25:23.457Z,0.87
2023-03-16T05:27:55.013Z,0.73
2023-03-16T05:30:25.251Z,1.10
2023-03-16T05:32:55.570Z,1.08
2023-03-16T05:35:24.481Z,1.00
2023-03-16T05:37:53.063Z,1.20
2023-03-16T05:40:23.225Z,1.10
2023-03-16T05:42:57.533Z,1.20
2023-03-16T05:45:27.730Z,1.40
2023-03-16T05:47:56.364Z,1.40
2023-03-16T05:50:25.268Z,1.40
2023-03-16T05:52:54.245Z,0.70
2023-03-16T05:55:23.559Z,1.20
2023-03-16T05:57:52.126Z,1.30
2023-03-16T06:00:22.834Z,1.27
2023-03-16T06:02:53.076Z,1.50
2023-03-16T06:05:24.455Z,1.37
2023-03-16T06:07:53.537Z,1.48
2023-03-16T06:10:22.978Z,1.30
2023-03-16T06:12:51.749Z,1.33
2023-03-16T06:15:20.879Z,1.50
2023-03-16T06:17:49.440Z,1.02
2023-03-16T06:20:19.672Z,1.50
2023-03-16T06:22:48.332Z,1.75
2023-03-16T06:25:17.927Z,1.60
2023-03-16T06:27:46.644Z,1.40
2023-03-16T06:30:16.437Z,1.42
2023-03-16T06:32:46.397Z,1.50
2023-03-16T06:35:15.461Z,1.60
2023-03-16T06:37:45.449Z,1.73
2023-03-16T06:40:14.937Z,1.90
2023-03-16T06:42:45.684Z,1.63
2023-03-16T06:45:16.696Z,1.38
2023-03-16T06:47:45.542Z,1.52
2023-03-16T06:50:14.179Z,1.50
2023-03-16T06:52:44.350Z,1.50
2023-03-16T06:55:14.485Z,1.50
2023-03-16T06:57:43.125Z,1.57
2023-03-16T07:00:15.592Z,1.60
2023-03-16T07:02:44.285Z,1.20
2023-03-16T07:05:14.320Z,1.25
2023-03-16T07:07:45.461Z,1.20
2023-03-16T07:10:16.020Z,1.63
2023-03-16T07:12:45.131Z,1.50
2023-03-16T07:15:14.399Z,1.65
2023-03-16T07:17:43.680Z,1.02
2023-03-16T07:20:13.232Z,1.65
2023-03-16T07:22:43.905Z,1.20
2023-03-16T07:25:13.993Z,1.42
2023-03-16T07:27:43.912Z,1.42
2023-03-16T07:30:14.375Z,1.38
2023-03-16T07:32:43.257Z,1.40
2023-03-16T07:35:12.701Z,1.30
2023-03-16T07:37:42.068Z,1.30
2023-03-16T07:40:14.060Z,1.35
2023-03-16T07:42:42.946Z,1.13
2023-03-16T07:45:12.468Z,1.13
2023-03-16T07:47:41.776Z,0.85
2023-03-16T07:50:11.802Z,1.37
2023-03-16T07:52:40.997Z,1.40
2023-03-16T07:55:11.894Z,1.27
2023-03-16T07:57:42.565Z,1.30
2023-03-16T08:00:14.151Z,1.25
2023-03-16T08:02:43.050Z,1.10
2023-03-16T08:05:12.884Z,1.52
2023-03-16T08:07:41.460Z,1.20
2023-03-16T08:10:12.690Z,1.50
2023-03-16T08:12:41.821Z,1.58
2023-03-16T08:15:11.847Z,1.60
2023-03-16T08:17:41.816Z,1.55
2023-03-16T08:20:14.597Z,1.77
2023-03-16T08:22:46.796Z,1.20
2023-03-16T08:25:17.092Z,1.55
2023-03-16T08:27:45.643Z,1.65
2023-03-16T08:30:16.698Z,1.40
2023-03-16T08:32:45.354Z,1.50
2023-03-16T08:35:16.556Z,1.15
2023-03-16T08:37:46.409Z,1.27
2023-03-16T08:40:17.903Z,1.53
2023-03-16T08:42:46.543Z,1.30
2023-03-16T08:45:15.126Z,1.50
2023-03-16T08:47:44.379Z,1.17
2023-03-16T08:50:14.103Z,1.40
2023-03-16T08:52:42.876Z,1.50
2023-03-16T08:55:13.377Z,1.52
2023-03-16T08:57:45.186Z,1.10
2023-03-16T09:00:15.639Z,1.55
2023-03-16T09:02:45.716Z,1.25
2023-03-16T09:05:16.050Z,1.23
2023-03-16T09:07:44.931Z,1.02
2023-03-16T09:10:16.435Z,1.30
2023-03-16T09:12:47.304Z,1.58
2023-03-16T09:15:15.960Z,1.50
2023-03-16T09:17:45.839Z,1.65
2023-03-16T09:20:26.237Z,1.70
2023-03-16T09:22:57.010Z,1.55
2023-03-16T09:25:26.322Z,1.63
2023-03-16T09:27:56.312Z,1.65
2023-03-16T09:30:24.929Z,1.60
2023-03-16T09:32:53.618Z,1.70
2023-03-16T09:35:22.333Z,1.35
2023-03-16T09:38:05.239Z,1.63
2023-03-16T09:40:36.174Z,1.33
2023-03-16T09:43:22.186Z,1.50
2023-03-16T09:45:59.695Z,1.30
2023-03-16T09:48:30.076Z,1.42
2023-03-16T09:51:00.049Z,1.10
2023-03-16T09:53:31.305Z,1.70
2023-03-16T09:56:04.505Z,1.40
2023-03-16T09:58:34.568Z,1.58
2023-03-16T10:01:11.254Z,1.30
2023-03-16T10:04:00.640Z,1.23
2023-03-16T10:06:30.701Z,1.30
2023-03-16T10:09:06.987Z,1.55
2023-03-16T10:11:39.435Z,1.30
2023-03-16T10:14:17.763Z,1.42
2023-03-16T10:16:51.491Z,1.35
2023-03-16T10:19:25.426Z,1.67
2023-03-16T10:21:59.655Z,1.50
2023-03-16T10:24:40.524Z,1.50
2023-03-16T10:27:18.137Z,1.70
2023-03-16T10:29:48.722Z,1.50
2023-03-16T10:32:19.836Z,1.20
2023-03-16T10:34:56.162Z,0.80
2023-03-16T10:37:28.364Z,1.50
2023-03-16T10:39:57.426Z,1.23
2023-03-16T10:42:27.192Z,1.40
2023-03-16T10:45:03.005Z,1.35
2023-03-16T10:47:34.204Z,1.50
2023-03-16T10:50:14.448Z,1.47
2023-03-16T10:52:46.892Z,1.38
2023-03-16T10:55:22.198Z,1.33
2023-03-16T10:57:53.653Z,1.23
2023-03-16T11:00:29.012Z,1.25
2023-03-16T11:03:00.440Z,1.52
2023-03-16T11:05:32.416Z,1.40
2023-03-16T11:08:03.755Z,1.50
2023-03-16T11:10:40.432Z,1.60
2023-03-16T11:13:17.671Z,1.42
2023-03-16T11:15:45.621Z,1.50
2023-03-16T11:18:29.594Z,1.50
2023-03-16T11:21:02.701Z,1.27
2023-03-16T11:23:35.662Z,1.10
2023-03-16T11:26:09.760Z,0.93
2023-03-16T11:28:41.860Z,1.17
2023-03-16T11:31:20.484Z,1.13
2023-03-16T11:33:50.471Z,1.50
2023-03-16T11:36:39.550Z,1.40
2023-03-16T11:39:18.462Z,1.30
2023-03-16T11:41:59.993Z,1.10
2023-03-16T11:44:35.002Z,1.40
2023-03-16T11:47:18.507Z,1.10
2023-03-16T11:49:58.575Z,1.30
2023-03-16T11:52:39.830Z,1.30
2023-03-16T11:55:25.028Z,1.17
2023-03-16T11:58:04.557Z,1.10
2023-03-16T12:00:40.797Z,1.08
2023-03-16T12:03:45.859Z,1.05
2023-03-16T12:06:29.777Z,1.10
2023-03-16T12:09:28.812Z,1.15
2023-03-16T12:12:02.995Z,1.40
2023-03-16T12:14:38.286Z,1.20
2023-03-16T12:17:14.862Z,1.20
2023-03-16T12:19:47.567Z,1.00
2023-03-16T12:22:21.696Z,0.90
2023-03-16T12:24:50.924Z,1.00
2023-03-16T12:27:24.032Z,1.23
2023-03-16T12:30:03.922Z,2.35
2023-03-16T12:32:44.740Z,1.50
2023-03-16T12:35:28.383Z,1.40
2023-03-16T12:38:15.807Z,1.10
2023-03-16T12:40:53.994Z,1.20
2023-03-16T12:43:42.763Z,1.10
2023-03-16T12:46:15.700Z,1.13
2023-03-16T12:48:48.930Z,1.35
2023-03-16T12:51:17.616Z,0.93
2023-03-16T12:53:54.781Z,1.20
2023-03-16T12:56:31.111Z,0.90
2023-03-16T12:59:02.125Z,0.93
2023-03-16T13:01:38.606Z,0.90
2023-03-16T13:04:13.593Z,0.95
2023-03-16T13:06:47.563Z,0.90
2023-03-16T13:09:22.859Z,1.10
2023-03-16T13:11:53.412Z,1.00
2023-03-16T13:14:40.862Z,0.90
2023-03-16T13:17:27.272Z,1.05
2023-03-16T13:20:08.955Z,0.90
2023-03-16T13:22:46.592Z,0.82
2023-03-16T13:25:23.364Z,1.10
2023-03-16T13:27:55.556Z,0.90
2023-03-16T13:30:27.449Z,1.10
2023-03-16T13:33:00.708Z,0.80
2023-03-16T13:35:31.855Z,0.93
2023-03-16T13:38:06.578Z,0.93
2023-03-16T13:40:38.990Z,0.90
2023-03-16T13:43:07.527Z,0.90
2023-03-16T13:45:38.918Z,0.98
2023-03-16T13:48:07.827Z,0.77
2023-03-16T13:50:38.725Z,0.50
2023-03-16T13:53:15.641Z,0.70
2023-03-16T13:55:48.506Z,0.80
2023-03-16T13:58:23.721Z,0.82
2023-03-16T14:00:58.118Z,0.77
2023-03-16T14:03:33.945Z,0.80
2023-03-16T14:06:03.515Z,0.70
2023-03-16T14:08:33.924Z,0.90
2023-03-16T14:11:05.042Z,0.70
2023-03-16T14:13:38.296Z,0.90
2023-03-16T14:16:14.273Z,0.68
2023-03-16T14:18:46.068Z,0.70
2023-03-16T14:21:18.815Z,0.80
2023-03-16T14:23:49.320Z,0.80
2023-03-16T14:26:24.896Z,0.60
2023-03-16T14:29:02.896Z,0.70
2023-03-16T14:31:38.659Z,0.60
2023-03-16T14:34:21.385Z,0.75
2023-03-16T14:36:49.861Z,0.68
2023-03-16T14:39:22.895Z,0.60
2023-03-16T14:41:53.556Z,0.80
2023-03-16T14:44:25.729Z,0.80
2023-03-16T14:46:57.392Z,0.80
2023-03-16T14:49:30.622Z,0.73
2023-03-16T14:52:03.297Z,0.60
2023-03-16T14:54:32.049Z,0.53
2023-03-16T14:57:05.534Z,0.53
2023-03-16T14:59:34.873Z,0.60
2023-03-16T15:02:08.308Z,0.80
2023-03-16T15:04:38.364Z,0.80
2023-03-16T15:07:23.964Z,0.60
2023-03-16T15:09:54.441Z,0.60
2023-03-16T15:12:26.260Z,0.80
2023-03-16T15:15:12.330Z,0.60
2023-03-16T15:17:40.607Z,0.75
2023-03-16T15:20:11.953Z,0.57
2023-03-16T15:22:41.735Z,0.68
2023-03-16T15:25:25.524Z,0.73
2023-03-16T15:27:55.810Z,0.60
2023-03-16T15:30:27.092Z,0.77
2023-03-16T15:32:55.641Z,0.50
2023-03-16T15:35:24.087Z,0.70
2023-03-16T15:37:52.482Z,0.85
2023-03-16T15:40:24.416Z,0.70
2023-03-16T15:42:54.496Z,0.75
2023-03-16T15:45:24.624Z,0.70
2023-03-16T15:47:55.256Z,0.80
2023-03-16T15:50:25.823Z,0.60
2023-03-16T15:52:58.660Z,0.75
2023-03-16T15:55:36.284Z,0.70
2023-03-16T15:58:06.947Z,0.50
2023-03-16T16:00:39.647Z,0.80
2023-03-16T16:03:08.487Z,0.77
2023-03-16T16:05:36.799Z,0.60
2023-03-16T16:08:05.263Z,0.75
2023-03-16T16:10:34.344Z,0.68
2023-03-16T16:13:03.245Z,0.80
2023-03-16T16:15:37.063Z,0.60
2023-03-16T16:18:26.595Z,0.63
2023-03-16T16:20:55.179Z,0.77
2023-03-16T16:23:23.783Z,0.70
2023-03-16T16:25:53.183Z,0.63
2023-03-16T16:28:24.874Z,0.70
2023-03-16T16:30:54.880Z,0.90
2023-03-16T16:33:26.746Z,0.70
2023-03-16T16:35:57.698Z,0.70
2023-03-16T16:38:26.491Z,0.50
2023-03-16T16:40:58.566Z,0.90
2023-03-16T16:43:33.656Z,0.90
2023-03-16T16:46:06.776Z,0.70
2023-03-16T16:48:39.399Z,0.70
2023-03-16T16:51:17.648Z,0.70
2023-03-16T16:53:46.755Z,0.73
2023-03-16T16:56:17.919Z,0.70
2023-03-16T16:58:46.833Z,0.70
2023-03-16T17:01:24.344Z,0.57
2023-03-16T17:03:52.693Z,0.57
2023-03-16T17:06:22.311Z,0.98
2023-03-16T17:08:52.335Z,0.63
2023-03-16T17:11:24.922Z,0.80
2023-03-16T17:13:55.413Z,0.80
2023-03-16T17:16:26.709Z,0.70
2023-03-16T17:18:55.578Z,0.83
2023-03-16T17:21:26.135Z,0.73
2023-03-16T17:23:55.125Z,0.90
2023-03-16T17:26:26.404Z,0.88
2023-03-16T17:28:58.478Z,0.73
2023-03-16T17:31:35.071Z,1.03
2023-03-16T17:34:10.692Z,1.02
2023-03-16T17:36:39.045Z,0.73
2023-03-16T17:39:17.262Z,0.90
2023-03-16T17:41:46.939Z,1.00
2023-03-16T17:44:16.377Z,1.00
2023-03-16T17:46:46.388Z,1.10
2023-03-16T17:49:17.663Z,0.90
2023-03-16T17:51:46.576Z,1.00
2023-03-16T17:54:15.069Z,1.10
2023-03-16T17:56:52.853Z,1.00
2023-03-16T17:59:23.715Z,1.00
2023-03-16T18:01:53.448Z,1.20
2023-03-16T18:04:24.517Z,1.02
2023-03-16T18:06:54.354Z,0.63
2023-03-16T18:09:22.714Z,0.68
2023-03-16T18:11:52.578Z,1.20
2023-03-16T18:14:36.026Z,1.00
2023-03-16T18:17:17.006Z,1.10
2023-03-16T18:19:47.006Z,0.90
2023-03-16T18:22:20.223Z,1.13
2023-03-16T18:24:50.095Z,1.00
2023-03-16T18:27:18.641Z,1.17
2023-03-16T18:29:48.246Z,1.17
2023-03-16T18:32:24.246Z,1.27
2023-03-16T18:34:53.734Z,1.02
2023-03-16T18:37:25.242Z,0.73
2023-03-16T18:39:55.289Z,1.25
2023-03-16T18:42:25.898Z,1.17
2023-03-16T18:44:54.761Z,1.20
2023-03-16T18:47:31.476Z,1.15
2023-03-16T18:50:00.539Z,1.10
2023-03-16T18:52:32.853Z,1.00
2023-03-16T18:55:01.516Z,1.00
2023-03-16T18:57:31.797Z,1.23
2023-03-16T19:00:00.254Z,0.87
2023-03-16T19:02:37.359Z,1.15
2023-03-16T19:05:10.003Z,0.93
2023-03-16T19:07:42.236Z,1.27
2023-03-16T19:10:26.410Z,1.10
2023-03-16T19:12:55.563Z,1.05
2023-03-16T19:15:27.998Z,1.08
2023-03-16T19:17:58.841Z,0.93
2023-03-16T19:20:29.941Z,0.70
2023-03-16T19:23:03.868Z,1.20
2023-03-16T19:25:36.252Z,0.77
2023-03-16T19:28:05.778Z,1.00
2023-03-16T19:30:37.008Z,1.10
2023-03-16T19:33:22.056Z,0.90
2023-03-16T19:35:52.481Z,1.17
2023-03-16T19:38:21.598Z,0.90
2023-03-16T19:40:54.548Z,1.20
2023-03-16T19:43:23.869Z,0.77
2023-03-16T19:45:52.905Z,0.60
2023-03-16T19:48:29.051Z,0.77
2023-03-16T19:50:57.340Z,0.98
2023-03-16T19:53:26.344Z,1.10
2023-03-16T19:55:55.695Z,0.63
2023-03-16T19:58:32.350Z,1.00
2023-03-16T20:01:02.187Z,1.05
2023-03-16T20:03:37.515Z,1.10
2023-03-16T20:06:06.381Z,1.20
2023-03-16T20:08:34.677Z,1.10
2023-03-16T20:11:07.499Z,1.00
2023-03-16T20:13:36.821Z,0.87
2023-03-16T20:16:05.497Z,0.88
2023-03-16T20:18:35.145Z,0.90
2023-03-16T20:21:03.452Z,0.60
2023-03-16T20:23:31.809Z,0.60
2023-03-16T20:26:03.029Z,1.00
2023-03-16T20:28:36.812Z,0.90
2023-03-16T20:31:08.462Z,1.10
2023-03-16T20:33:38.286Z,1.00
2023-03-16T20:36:07.802Z,0.65
2023-03-16T20:38:36.202Z,0.98
2023-03-16T20:41:04.840Z,1.23
2023-03-16T20:43:34.217Z,1.10
2023-03-16T20:46:03.901Z,0.65
2023-03-16T20:48:32.912Z,1.20
2023-03-16T20:51:02.820Z,1.20
2023-03-16T20:53:31.346Z,1.13
2023-03-16T20:55:59.726Z,1.20
2023-03-16T20:58:36.585Z,1.20
2023-03-16T21:01:05.778Z,0.90
2023-03-16T21:03:34.768Z,1.20
2023-03-16T21:06:07.748Z,1.10
2023-03-16T21:08:36.072Z,1.03
2023-03-16T21:11:04.506Z,0.90
2023-03-16T21:13:34.569Z,1.10
2023-03-16T21:16:04.788Z,1.00
2023-03-16T21:18:33.196Z,1.00
2023-03-16T21:21:03.273Z,1.27
2023-03-16T21:23:31.838Z,1.10
2023-03-16T21:26:03.828Z,1.00
2023-03-16T21:28:35.586Z,1.30
2023-03-16T21:31:04.236Z,0.98
2023-03-16T21:33:35.212Z,0.93
2023-03-16T21:36:08.734Z,1.05
2023-03-16T21:38:37.042Z,1.50
2023-03-16T21:41:07.274Z,0.80
2023-03-16T21:43:35.582Z,1.00
2023-03-16T21:46:04.277Z,1.20
2023-03-16T21:48:37.546Z,1.30
2023-03-16T21:51:14.548Z,1.30
2023-03-16T21:53:43.305Z,0.70
2023-03-16T21:56:19.760Z,1.10
2023-03-16T21:58:48.450Z,0.80
2023-03-16T22:01:24.912Z,1.17
2023-03-16T22:03:57.462Z,1.10
2023-03-16T22:06:29.024Z,1.00
2023-03-16T22:08:58.244Z,1.15
2023-03-16T22:11:29.953Z,1.05
2023-03-16T22:14:00.135Z,1.10
2023-03-16T22:16:32.607Z,1.02
2023-03-16T22:19:01.219Z,1.10
2023-03-16T22:21:36.451Z,1.10
2023-03-16T22:24:07.250Z,1.10
2023-03-16T22:26:35.688Z,0.90
2023-03-16T22:29:07.731Z,1.08
2023-03-16T22:31:39.209Z,1.07
2023-03-16T22:34:11.148Z,1.00
2023-03-16T22:36:40.926Z,0.90
2023-03-16T22:39:12.980Z,1.00
2023-03-16T22:41:41.345Z,1.10
2023-03-16T22:44:20.156Z,1.10
2023-03-16T22:46:50.328Z,0.63
2023-03-16T22:49:23.306Z,0.88
2023-03-16T22:51:56.335Z,0.63
2023-03-16T22:54:28.362Z,0.70
2023-03-16T22:56:56.925Z,1.00
2023-03-16T22:59:27.765Z,0.90
2023-03-16T23:01:56.540Z,1.08
2023-03-16T23:04:30.091Z,0.90
2023-03-16T23:07:00.715Z,0.70
2023-03-16T23:09:29.776Z,0.90
2023-03-16T23:11:59.549Z,0.80
2023-03-16T23:14:32.881Z,0.77
2023-03-16T23:17:01.757Z,0.90
2023-03-16T23:19:32.952Z,0.70
2023-03-16T23:22:05.683Z,0.95
2023-03-16T23:24:34.737Z,0.90
2023-03-16T23:27:03.996Z,0.90
2023-03-16T23:29:32.689Z,0.70
2023-03-16T23:32:01.245Z,0.77
2023-03-16T23:34:29.557Z,0.85
2023-03-16T23:36:57.851Z,0.85
2023-03-16T23:39:28.786Z,0.70
2023-03-16T23:41:57.375Z,0.70
2023-03-16T23:44:29.633Z,0.85
2023-03-16T23:46:58.265Z,0.90
2023-03-16T23:49:30.139Z,0.80
2023-03-16T23:52:01.674Z,0.90
2023-03-16T23:54:33.363Z,0.70
2023-03-16T23:57:02.144Z,0.82
2023-03-16T23:59:30.539Z,0.82
